Time;durP1;ratioP1;P1;durP2;ratioP2;P2;SDS_P1;SDS_P2;PMS_P1;PMS_P2;Temp;Humidity;BMP_temperature;BMP_pressure;BME280_temperature;BME280_humidity;BME280_pressure;Samples;Min_cycle;Max_cycle;Signal;HPM_P1;HPM_P2
2022/11/19 00:04:43;;;;;;;20.33;9.67;;;-1.20;99.90;;;;;;10438986;28;20033;-82
2022/11/19 00:09:43;;;;;;;22.50;10.77;;;-1.30;99.90;;;;;;10442541;28;20068;-82
2022/11/19 00:14:44;;;;;;;24.73;10.63;;;-1.30;99.90;;;;;;10420531;28;20037;-81
2022/11/19 00:19:44;;;;;;;27.50;10.93;;;-1.30;99.90;;;;;;10392226;28;20075;-81
2022/11/19 00:24:45;;;;;;;26.77;11.93;;;-1.40;99.90;;;;;;10415746;28;20409;-81
2022/11/19 00:29:45;;;;;;;24.97;11.83;;;-1.40;99.90;;;;;;10409675;28;20497;-82
2022/11/19 00:34:46;;;;;;;22.47;11.47;;;-1.40;99.90;;;;;;10413720;28;20037;-81
2022/11/19 00:39:47;;;;;;;26.33;11.50;;;-1.40;99.90;;;;;;10408944;28;20065;-83
2022/11/19 00:44:47;;;;;;;25.90;11.63;;;-1.40;99.90;;;;;;10412979;28;20045;-83
2022/11/19 00:49:48;;;;;;;26.90;12.00;;;-1.40;99.90;;;;;;10443033;28;20029;-81
2022/11/19 00:54:48;;;;;;;26.77;12.57;;;-1.40;99.90;;;;;;10482038;28;20383;-81
2022/11/19 00:59:49;;;;;;;26.67;12.97;;;-1.40;99.90;;;;;;10475784;28;20501;-82
2022/11/19 01:04:49;;;;;;;30.43;14.10;;;-1.40;99.90;;;;;;10477915;28;20036;-82
2022/11/19 01:09:50;;;;;;;28.03;15.03;;;-1.40;99.90;;;;;;10475748;28;20072;-83
2022/11/19 01:14:50;;;;;;;30.33;14.83;;;-1.50;99.90;;;;;;10456046;28;20110;-82
2022/11/19 01:19:51;;;;;;;30.80;15.67;;;-1.50;99.90;;;;;;10466259;28;20427;-82
2022/11/19 01:24:52;;;;;;;31.67;15.30;;;-1.50;99.90;;;;;;10463999;28;20041;-81
2022/11/19 01:29:52;;;;;;;32.57;15.37;;;-1.50;99.90;;;;;;10455852;28;20025;-82
2022/11/19 01:34:53;;;;;;;35.33;16.83;;;-1.40;99.90;;;;;;10483780;28;20045;-82
2022/11/19 01:39:53;;;;;;;32.33;14.60;;;-1.50;99.90;;;;;;10474888;28;20040;-81
2022/11/19 01:45:01;;;;;;;32.93;15.23;;;-1.40;99.90;;;;;;10459107;28;20045;-82
2022/11/19 01:50:02;;;;;;;32.67;16.47;;;-1.40;99.90;;;;;;10465195;28;20028;-81
2022/11/19 01:55:03;;;;;;;38.67;18.10;;;-1.40;99.90;;;;;;10458628;28;20142;-83
2022/11/19 02:00:05;;;;;;;39.93;17.67;;;-1.40;99.90;;;;;;10465647;28;20086;-82
2022/11/19 02:05:06;;;;;;;34.43;16.73;;;-1.40;99.90;;;;;;10475716;28;20106;-83
2022/11/19 02:10:07;;;;;;;38.47;17.50;;;-1.40;99.90;;;;;;10467238;28;20094;-82
2022/11/19 02:15:20;;;;;;;38.23;17.37;;;-1.40;99.90;;;;;;10466101;28;20059;-82
2022/11/19 02:20:52;;;;;;;32.93;15.80;;;-1.40;99.90;;;;;;10481392;28;20048;-83
2022/11/19 02:26:02;;;;;;;33.73;16.20;;;-1.40;99.90;;;;;;10476703;28;20036;-83
2022/11/19 02:31:28;;;;;;;33.80;15.00;;;-1.50;99.90;;;;;;10440054;28;20527;-82
2022/11/19 02:36:46;;;;;;;32.97;15.32;;;-1.50;99.90;;;;;;10452804;28;20029;-82
2022/11/19 02:42:13;;;;;;;34.50;15.77;;;-1.50;99.90;;;;;;10472489;28;20115;-82
2022/11/19 02:47:21;;;;;;;29.90;14.20;;;-1.50;99.90;;;;;;10459931;28;20077;-81
2022/11/19 02:52:22;;;;;;;33.13;14.80;;;-1.50;99.90;;;;;;10479250;28;20048;-82
2022/11/19 02:57:22;;;;;;;30.73;14.23;;;-1.50;99.90;;;;;;10461117;28;20381;-82
2022/11/19 03:07:49;;;;;;;32.80;16.70;;;-1.50;99.90;;;;;;10472724;28;20052;-82
2022/11/19 03:16:40;;;;;;;36.43;16.37;;;-1.40;99.90;;;;;;10458370;28;20047;-82
2022/11/19 03:18:31;;;;;;;38.43;17.77;;;-1.40;99.90;;;;;;10469358;28;20145;-82
2022/11/19 03:23:43;;;;;;;39.50;18.83;;;-1.40;99.90;;;;;;10483698;28;20036;-81
2022/11/19 03:28:46;;;;;;;36.40;16.27;;;-1.40;99.90;;;;;;10447588;28;20036;-82
2022/11/19 03:33:51;;;;;;;38.20;18.40;;;-1.40;99.90;;;;;;10470626;28;20028;-82
2022/11/19 03:38:57;;;;;;;39.77;17.57;;;-1.40;99.90;;;;;;10455269;28;20040;-82
2022/11/19 03:44:04;;;;;;;38.13;17.20;;;-1.40;99.90;;;;;;10462105;28;20040;-82
2022/11/19 03:49:07;;;;;;;33.73;15.70;;;-1.40;99.90;;;;;;10489555;28;20751;-81
2022/11/19 03:54:08;;;;;;;35.53;16.90;;;-1.30;99.90;;;;;;10489834;28;20029;-81
2022/11/19 03:59:10;;;;;;;35.37;16.93;;;-1.30;99.90;;;;;;10464552;28;20029;-82
2022/11/19 04:09:29;;;;;;;35.93;17.47;;;-1.40;99.90;;;;;;10449619;28;20076;-81
2022/11/19 04:14:30;;;;;;;36.30;16.63;;;-1.30;99.90;;;;;;10448694;28;20115;-83
2022/11/19 04:19:30;;;;;;;33.83;17.33;;;-1.30;99.90;;;;;;10448231;28;20044;-82
2022/11/19 04:24:31;;;;;;;30.10;15.33;;;-1.30;99.90;;;;;;10449146;28;20033;-83
2022/11/19 04:29:32;;;;;;;37.57;16.43;;;-1.20;99.90;;;;;;10432698;28;20034;-82
2022/11/19 04:34:32;;;;;;;32.60;16.33;;;-1.20;99.90;;;;;;10444595;28;20029;-83
2022/11/19 04:39:33;;;;;;;33.50;15.03;;;-1.20;99.90;;;;;;10430494;28;20041;-82
2022/11/19 04:44:33;;;;;;;33.57;15.20;;;-1.20;99.90;;;;;;10448784;28;20037;-84
2022/11/19 04:49:34;;;;;;;35.57;17.13;;;-1.30;99.90;;;;;;10448139;28;20174;-81
2022/11/19 04:54:34;;;;;;;37.47;16.43;;;-1.30;99.90;;;;;;10446986;28;20261;-82
2022/11/19 04:59:35;;;;;;;33.60;15.53;;;-1.30;99.90;;;;;;10430341;28;20037;-82
2022/11/19 05:04:35;;;;;;;35.63;17.17;;;-1.40;99.90;;;;;;10464407;28;20029;-82
2022/11/19 05:09:36;;;;;;;37.17;17.27;;;-1.30;99.90;;;;;;10473719;28;20080;-82
2022/11/19 05:14:37;;;;;;;43.10;21.17;;;-1.40;99.90;;;;;;10436307;28;20056;-83
2022/11/19 05:19:38;;;;;;;46.27;21.20;;;-1.50;99.90;;;;;;10441852;28;20103;-80
2022/11/19 05:24:38;;;;;;;49.70;22.13;;;-1.50;99.90;;;;;;10447104;28;20123;-82
2022/11/19 05:29:39;;;;;;;51.57;23.30;;;-1.50;99.90;;;;;;10448526;28;20047;-82
2022/11/19 05:34:39;;;;;;;47.43;22.83;;;-1.50;99.90;;;;;;10456321;28;20097;-84
2022/11/19 05:39:40;;;;;;;48.73;22.53;;;-1.50;99.90;;;;;;10456810;28;20032;-82
2022/11/19 05:44:40;;;;;;;48.00;21.60;;;-1.40;99.90;;;;;;10446144;28;20610;-82
2022/11/19 05:49:41;;;;;;;44.80;20.90;;;-1.40;99.90;;;;;;10462884;28;20048;-83
2022/11/19 05:54:41;;;;;;;40.03;19.17;;;-1.50;99.90;;;;;;10449887;28;20515;-82
2022/11/19 05:59:42;;;;;;;40.83;19.87;;;-1.50;99.90;;;;;;10452262;28;20025;-82
2022/11/19 06:04:43;;;;;;;36.07;18.57;;;-1.40;99.90;;;;;;10455846;28;20072;-82
2022/11/19 06:09:43;;;;;;;37.80;17.20;;;-1.50;99.90;;;;;;10455224;28;20053;-82
2022/11/19 06:14:44;;;;;;;36.07;18.50;;;-1.50;99.90;;;;;;10461266;28;20036;-82
2022/11/19 06:19:44;;;;;;;36.57;17.87;;;-1.60;99.90;;;;;;10461347;28;20114;-82
2022/11/19 06:24:45;;;;;;;34.80;16.67;;;-1.70;99.90;;;;;;10448855;28;20114;-81
2022/11/19 06:29:45;;;;;;;31.77;15.13;;;-1.70;99.90;;;;;;10481914;28;20029;-82
2022/11/19 06:34:46;;;;;;;29.97;14.73;;;-1.70;99.90;;;;;;10485034;28;20064;-84
2022/11/19 06:39:46;;;;;;;30.47;14.60;;;-1.70;99.90;;;;;;10477386;28;20039;-82
2022/11/19 06:44:47;;;;;;;29.90;15.20;;;-1.70;99.90;;;;;;10485765;22;20064;-79
2022/11/19 06:49:47;;;;;;;31.03;15.13;;;-1.80;99.90;;;;;;10483285;28;20037;-80
2022/11/19 06:54:48;;;;;;;33.50;16.07;;;-1.70;99.90;;;;;;10457621;28;20467;-82
2022/11/19 06:59:49;;;;;;;28.00;13.77;;;-1.70;99.90;;;;;;10460271;28;20033;-81
2022/11/19 07:04:49;;;;;;;25.00;12.67;;;-1.80;99.90;;;;;;10482885;28;20031;-81
2022/11/19 07:09:50;;;;;;;31.87;15.13;;;-1.80;99.90;;;;;;10470493;28;20033;-80
2022/11/19 07:14:50;;;;;;;34.43;15.00;;;-1.80;99.90;;;;;;10469277;28;20299;-81
2022/11/19 07:19:51;;;;;;;28.93;14.30;;;-1.80;99.90;;;;;;10462417;28;20488;-80
2022/11/19 07:24:51;;;;;;;29.17;13.43;;;-1.80;99.90;;;;;;10446269;28;20049;-81
2022/11/19 07:29:52;;;;;;;29.97;13.97;;;-1.80;99.90;;;;;;10474869;28;20094;-81
2022/11/19 07:34:52;;;;;;;28.17;13.80;;;-1.70;99.90;;;;;;10426979;28;20399;-81
2022/11/19 07:39:53;;;;;;;32.27;14.47;;;-1.70;99.90;;;;;;10440493;28;20108;-80
2022/11/19 07:44:53;;;;;;;35.00;15.90;;;-1.70;99.90;;;;;;10469284;28;20135;-81
2022/11/19 07:49:54;;;;;;;23.70;12.33;;;-1.60;99.90;;;;;;10458441;28;20750;-81
2022/11/19 07:54:55;;;;;;;24.07;12.47;;;-1.60;99.90;;;;;;10470160;28;20111;-80
2022/11/19 07:59:55;;;;;;;22.87;10.83;;;-1.60;99.90;;;;;;10432022;28;20024;-80
2022/11/19 08:04:56;;;;;;;22.90;11.87;;;-1.60;99.90;;;;;;10447490;28;20766;-79
2022/11/19 08:09:56;;;;;;;28.70;14.00;;;-1.50;99.90;;;;;;10431429;28;20055;-79
2022/11/19 08:14:57;;;;;;;28.87;13.37;;;-1.50;99.90;;;;;;10433879;28;20376;-80
2022/11/19 08:19:57;;;;;;;27.87;13.97;;;-1.50;99.90;;;;;;10450860;28;20033;-80
2022/11/19 08:24:58;;;;;;;27.80;14.67;;;-1.40;99.90;;;;;;10446014;28;20491;-81
2022/11/19 08:29:58;;;;;;;47.23;19.50;;;-1.40;99.90;;;;;;10456522;28;20028;-79
2022/11/19 08:34:59;;;;;;;34.47;15.60;;;-1.20;99.90;;;;;;10479072;28;20025;-80
2022/11/19 08:39:59;;;;;;;42.30;17.97;;;-1.10;99.90;;;;;;10466398;28;20033;-81
2022/11/19 08:45:00;;;;;;;46.33;25.13;;;-1.10;99.90;;;;;;10452655;28;20057;-81
2022/11/19 08:50:00;;;;;;;64.47;27.73;;;-1.00;99.90;;;;;;10464485;28;20062;-80
2022/11/19 08:55:01;;;;;;;44.47;20.87;;;-0.80;99.90;;;;;;10481997;28;20710;-80
2022/11/19 09:00:02;;;;;;;35.93;16.63;;;-0.60;99.90;;;;;;10458384;28;20028;-79
2022/11/19 09:05:03;;;;;;;29.27;14.50;;;-0.50;99.90;;;;;;10446307;28;20392;-79
2022/11/19 09:10:04;;;;;;;33.93;16.73;;;-0.30;99.90;;;;;;10455286;28;20047;-81
2022/11/19 09:15:05;;;;;;;29.50;15.67;;;-0.10;99.90;;;;;;10464876;28;20459;-79
2022/11/19 09:20:06;;;;;;;26.17;13.23;;;0.10;99.90;;;;;;10455938;28;20033;-80
2022/11/19 09:25:07;;;;;;;30.57;14.90;;;0.10;99.90;;;;;;10456409;28;20041;-78
2022/11/19 09:30:10;;;;;;;25.30;12.73;;;0.10;99.90;;;;;;10452937;28;20029;-80
2022/11/19 09:35:10;;;;;;;27.90;14.63;;;0.00;99.90;;;;;;10454879;28;20111;-80
2022/11/19 09:40:16;;;;;;;20.80;11.43;;;0.00;99.90;;;;;;10462481;28;20036;-79
2022/11/19 09:45:46;;;;;;;25.13;13.27;;;0.00;99.90;;;;;;10447058;28;20114;-79
2022/11/19 09:50:59;;;;;;;23.57;11.70;;;0.20;99.90;;;;;;10456742;28;20060;-81
2022/11/19 09:55:59;;;;;;;29.03;13.87;;;0.30;99.90;;;;;;10453309;28;20437;-79
2022/11/19 10:01:00;;;;;;;28.67;13.63;;;0.30;99.90;;;;;;10471499;28;20116;-79
2022/11/19 10:06:12;;;;;;;60.03;29.10;;;0.40;99.90;;;;;;10446336;28;20898;-80
2022/11/19 10:11:37;;;;;;;52.50;22.40;;;0.50;99.90;;;;;;10459032;28;20028;-79
2022/11/19 10:17:04;;;;;;;24.07;13.00;;;0.50;99.90;;;;;;10441451;28;20152;-81
2022/11/19 10:22:20;;;;;;;29.67;14.90;;;0.60;99.90;;;;;;10425344;28;20052;-80
2022/11/19 10:27:34;;;;;;;32.40;15.83;;;0.80;99.90;;;;;;10445791;28;20032;-79
2022/11/19 10:32:41;;;;;;;29.03;14.57;;;0.80;99.90;;;;;;10440185;28;20059;-79
2022/11/19 10:37:57;;;;;;;33.37;16.03;;;0.80;99.90;;;;;;10439011;28;20608;-81
2022/11/19 10:43:31;;;;;;;31.38;15.25;;;1.00;99.90;;;;;;10442668;28;20515;-79
2022/11/19 10:48:44;;;;;;;31.97;16.67;;;1.00;99.90;;;;;;10428643;28;20052;-82
2022/11/19 10:53:45;;;;;;;35.30;17.33;;;1.10;99.90;;;;;;10450648;28;20013;-80
2022/11/19 10:59:05;;;;;;;51.77;24.10;;;1.10;99.90;;;;;;10445220;28;20021;-78
2022/11/19 11:04:24;;;;;;;45.77;22.30;;;0.90;99.90;;;;;;10451301;28;20028;-79
2022/11/19 11:09:43;;;;;;;58.90;28.93;;;0.80;99.90;;;;;;10425709;28;20033;-79
2022/11/19 11:14:51;;;;;;;43.87;19.23;;;0.60;99.90;;;;;;10444608;28;20048;-83
2022/11/19 11:20:15;;;;;;;35.57;15.90;;;0.50;99.90;;;;;;10457754;28;20433;-79
2022/11/19 11:25:23;;;;;;;45.30;19.77;;;0.50;99.90;;;;;;10445589;28;20052;-79
2022/11/19 11:30:23;;;;;;;34.93;15.93;;;0.40;99.90;;;;;;10451259;28;20049;-79
2022/11/19 11:35:36;;;;;;;46.73;22.83;;;0.20;99.90;;;;;;10438658;28;20075;-79
2022/11/19 11:40:37;;;;;;;54.10;25.27;;;0.30;99.90;;;;;;10426149;28;20025;-79
2022/11/19 11:45:37;;;;;;;40.30;15.37;;;0.30;99.90;;;;;;10447404;28;20060;-79
2022/11/19 11:50:43;;;;;;;36.33;15.67;;;0.50;99.90;;;;;;10456235;28;20530;-80
2022/11/19 11:55:44;;;;;;;75.45;26.42;;;0.50;99.90;;;;;;10435915;28;20037;-81
2022/11/19 12:00:45;;;;;;;21.83;11.23;;;0.40;99.90;;;;;;10454510;28;20480;-79
2022/11/19 12:06:14;;;;;;;36.73;14.93;;;0.30;99.90;;;;;;10474358;28;20036;-80
2022/11/19 12:11:54;;;;;;;31.40;15.20;;;0.20;99.90;;;;;;10446374;28;20503;-79
2022/11/19 12:17:12;;;;;;;29.50;14.63;;;0.20;99.90;;;;;;10453431;28;20507;-81
2022/11/19 12:22:19;;;;;;;32.20;16.23;;;0.20;99.90;;;;;;10475994;28;20070;-81
2022/11/19 12:27:57;;;;;;;53.63;25.10;;;0.20;99.90;;;;;;10483734;28;20161;-81
2022/11/19 12:33:03;;;;;;;43.90;20.23;;;0.30;99.90;;;;;;10468743;28;20074;-80
2022/11/19 12:38:19;;;;;;;38.07;18.47;;;0.30;99.90;;;;;;10483427;28;20393;-80
2022/11/19 12:43:50;;;;;;;34.97;17.50;;;0.40;99.90;;;;;;10446536;28;20412;-80
2022/11/19 12:49:16;;;;;;;32.83;16.10;;;0.40;99.90;;;;;;10444920;28;20045;-79
2022/11/19 13:05:59;;;;;;;58.23;24.37;;;0.30;99.90;;;;;;10445893;28;20127;-80
2022/11/19 13:11:18;;;;;;;36.13;15.97;;;0.30;99.90;;;;;;10456939;28;20084;-79
2022/11/19 13:16:21;;;;;;;50.77;20.77;;;0.20;99.90;;;;;;10458713;28;20086;-79
2022/11/19 13:21:46;;;;;;;55.47;24.97;;;0.10;99.90;;;;;;10473705;28;20719;-80
2022/11/19 13:26:47;;;;;;;39.47;18.40;;;0.00;99.90;;;;;;10488473;28;20040;-79
2022/11/19 13:31:58;;;;;;;35.43;17.43;;;0.10;99.90;;;;;;10464983;28;20476;-79
2022/11/19 13:37:34;;;;;;;52.20;22.33;;;0.00;99.90;;;;;;10460681;28;20782;-79
2022/11/19 13:48:03;;;;;;;112.77;41.97;;;0.00;99.90;;;;;;10476121;28;20052;-82
2022/11/19 13:53:12;;;;;;;89.87;35.67;;;-0.10;99.90;;;;;;10479817;28;20028;-80
2022/11/19 13:58:12;;;;;;;113.33;43.80;;;-0.20;99.90;;;;;;10462511;28;20025;-79
2022/11/19 14:03:13;;;;;;;125.83;50.13;;;-0.30;99.90;;;;;;10459939;28;20024;-80
2022/11/19 14:08:50;;;;;;;51.43;23.13;;;-0.40;99.90;;;;;;10446746;28;20085;-80
2022/11/19 14:31:00;;;;;;;163.20;62.50;;;-0.80;99.90;;;;;;10444367;28;20496;-83
2022/11/19 14:36:10;;;;;;;110.30;48.57;;;-1.10;99.90;;;;;;10442081;28;20488;-79
2022/11/19 14:41:26;;;;;;;94.67;44.17;;;-1.30;99.90;;;;;;10459099;28;20029;-81
2022/11/19 14:46:27;;;;;;;86.80;35.97;;;-1.40;99.90;;;;;;10458545;28;20057;-80
2022/11/19 14:51:34;;;;;;;88.00;38.83;;;-1.60;99.90;;;;;;10445285;28;20408;-81
2022/11/19 14:56:37;;;;;;;91.87;40.60;;;-1.70;99.90;;;;;;10424888;28;20033;-79
2022/11/19 15:02:09;;;;;;;81.30;34.20;;;-1.80;99.90;;;;;;10439946;28;20021;-80
2022/11/19 15:07:13;;;;;;;71.60;33.83;;;-1.90;99.90;;;;;;10425125;28;20052;-80
2022/11/19 15:12:14;;;;;;;75.90;35.97;;;-1.80;99.90;;;;;;10441934;28;20108;-81
2022/11/19 15:17:15;;;;;;;65.23;30.30;;;-1.80;99.90;;;;;;10440197;28;20032;-79
2022/11/19 15:22:50;;;;;;;112.23;47.73;;;-1.80;99.90;;;;;;10446573;28;20396;-80
2022/11/19 15:28:12;;;;;;;98.60;41.40;;;-1.80;99.90;;;;;;10437555;28;20065;-79
2022/11/19 15:33:54;;;;;;;99.33;42.30;;;-1.90;99.90;;;;;;10448847;28;20480;-79
2022/11/19 15:39:23;;;;;;;79.47;33.47;;;-1.90;99.90;;;;;;10309088;28;20035;-80
2022/11/19 15:44:35;;;;;;;70.00;31.43;;;-2.00;99.90;;;;;;10423272;28;20053;-79
2022/11/19 15:49:38;;;;;;;85.90;36.30;;;-2.10;99.90;;;;;;10439719;28;20029;-80
2022/11/19 15:54:39;;;;;;;127.07;52.53;;;-2.20;99.90;;;;;;10436625;28;20021;-80
2022/11/19 15:59:41;;;;;;;154.50;63.43;;;-2.40;99.90;;;;;;10440769;28;20021;-80
2022/11/19 16:04:42;;;;;;;162.40;70.60;;;-2.50;99.90;;;;;;10440078;28;20029;-80
2022/11/19 16:09:42;;;;;;;262.43;110.53;;;-2.80;99.90;;;;;;10437615;28;20029;-80
2022/11/19 16:20:12;;;;;;;262.37;113.50;;;-3.00;99.90;;;;;;10438188;28;20127;-80
2022/11/19 16:25:36;;;;;;;228.23;100.00;;;-3.10;99.90;;;;;;10443898;28;20036;-80
2022/11/19 16:30:45;;;;;;;224.07;98.70;;;-3.20;99.90;;;;;;10427387;28;20059;-82
2022/11/19 16:35:46;;;;;;;211.63;94.83;;;-3.20;99.90;;;;;;10441006;28;20763;-80
2022/11/19 16:46:06;;;;;;;210.90;88.80;;;-3.40;99.90;;;;;;10476979;28;20742;-80
2022/11/19 16:51:38;;;;;;;202.20;85.60;;;-3.50;99.90;;;;;;10467868;28;20041;-80
2022/11/19 16:56:42;;;;;;;179.33;75.30;;;-3.50;99.90;;;;;;10480949;28;20497;-79
2022/11/19 17:01:50;;;;;;;215.77;84.47;;;-3.60;99.90;;;;;;10483225;28;20024;-81
2022/11/19 17:06:50;;;;;;;190.40;78.77;;;-3.60;99.90;;;;;;10473295;28;20047;-80
2022/11/19 17:17:38;;;;;;;164.67;72.27;;;-3.70;99.90;;;;;;10445081;28;20543;-81
2022/11/19 17:22:39;;;;;;;154.93;66.87;;;-3.70;99.90;;;;;;10446017;28;20043;-80
2022/11/19 17:27:39;;;;;;;303.17;124.97;;;-3.80;99.90;;;;;;10444678;28;20036;-81
2022/11/19 17:33:02;;;;;;;233.57;106.47;;;-3.80;99.90;;;;;;10429018;28;20040;-80
2022/11/19 17:38:19;;;;;;;203.40;87.20;;;-3.90;99.90;;;;;;10443293;28;20036;-80
2022/11/19 17:48:55;;;;;;;224.67;92.23;;;-4.00;99.90;;;;;;10448181;28;20771;-80
2022/11/19 17:53:56;;;;;;;473.53;203.33;;;-4.00;99.90;;;;;;10444942;28;20550;-80
2022/11/19 17:58:58;;;;;;;588.23;272.33;;;-4.00;99.90;;;;;;10443153;28;20124;-80
2022/11/19 18:03:59;;;;;;;584.70;270.90;;;-4.10;99.90;;;;;;10444958;28;20860;-81
2022/11/19 18:08:59;;;;;;;406.87;178.50;;;-4.20;99.90;;;;;;10443329;28;20037;-80
2022/11/19 18:14:01;;;;;;;276.63;114.77;;;-4.20;99.90;;;;;;10444957;28;20099;-79
2022/11/19 18:19:01;;;;;;;354.40;153.53;;;-4.20;99.90;;;;;;10446731;28;20059;-79
2022/11/19 18:24:02;;;;;;;350.80;145.17;;;-4.20;99.90;;;;;;10447895;28;20035;-81
2022/11/19 18:29:02;;;;;;;189.77;86.60;;;-4.30;99.90;;;;;;10449674;28;20049;-80
2022/11/19 18:34:03;;;;;;;195.53;83.93;;;-4.30;99.90;;;;;;10442745;28;20029;-81
2022/11/19 18:39:03;;;;;;;255.87;106.07;;;-4.30;99.90;;;;;;10452798;28;20032;-80
2022/11/19 18:49:24;;;;;;;221.37;90.10;;;-4.30;99.90;;;;;;10467053;28;20052;-80
2022/11/19 18:54:24;;;;;;;223.13;92.53;;;-4.30;99.90;;;;;;10450230;28;20459;-81
2022/11/19 18:59:25;;;;;;;209.87;89.90;;;-4.30;99.90;;;;;;10454873;28;20024;-81
2022/11/19 19:04:26;;;;;;;218.80;90.27;;;-4.40;99.90;;;;;;10445381;28;20115;-80
2022/11/19 19:09:26;;;;;;;244.60;96.53;;;-4.40;99.90;;;;;;10457284;28;20045;-80
2022/11/19 19:14:27;;;;;;;279.63;109.63;;;-4.50;99.90;;;;;;10451242;28;20036;-80
2022/11/19 19:19:27;;;;;;;314.87;122.80;;;-4.60;99.90;;;;;;10467274;28;20029;-80
2022/11/19 19:24:29;;;;;;;306.20;125.77;;;-4.70;99.90;;;;;;10452702;28;20040;-79
2022/11/19 19:29:29;;;;;;;263.00;110.13;;;-4.70;99.90;;;;;;10465426;28;20701;-83
2022/11/19 19:34:30;;;;;;;305.77;121.77;;;-4.70;99.90;;;;;;10474370;28;20122;-79
2022/11/19 19:39:31;;;;;;;306.83;124.10;;;-4.80;99.90;;;;;;10443261;28;20492;-79
2022/11/19 19:44:32;;;;;;;312.77;139.97;;;-4.80;99.90;;;;;;10459966;28;20057;-79
2022/11/19 19:49:32;;;;;;;246.20;103.23;;;-4.90;99.90;;;;;;10459198;28;20052;-78
2022/11/19 19:54:33;;;;;;;232.87;95.80;;;-4.90;99.90;;;;;;10453364;28;20029;-80
2022/11/19 19:59:33;;;;;;;182.37;76.47;;;-4.90;99.90;;;;;;10462675;28;20814;-81
2022/11/19 20:04:34;;;;;;;187.27;81.53;;;-4.80;99.90;;;;;;10463830;28;20037;-79
2022/11/19 20:09:34;;;;;;;162.17;72.17;;;-4.90;99.90;;;;;;10452994;28;20037;-80
2022/11/19 20:14:35;;;;;;;166.23;71.47;;;-4.90;99.90;;;;;;10467175;28;20017;-80
2022/11/19 20:19:35;;;;;;;176.70;70.37;;;-5.00;99.90;;;;;;10453315;28;20048;-79
2022/11/19 20:24:36;;;;;;;191.93;73.27;;;-4.90;99.90;;;;;;10457317;28;21037;-79
2022/11/19 20:29:37;;;;;;;183.00;71.63;;;-4.90;99.90;;;;;;10477169;28;20033;-81
2022/11/19 20:34:37;;;;;;;170.97;69.00;;;-4.90;99.90;;;;;;10485502;28;20039;-81
2022/11/19 20:39:38;;;;;;;152.63;62.40;;;-4.90;99.90;;;;;;10439872;28;20037;-80
2022/11/19 20:44:38;;;;;;;136.73;59.67;;;-4.90;99.90;;;;;;10465726;28;20051;-79
2022/11/19 20:49:39;;;;;;;140.93;60.13;;;-5.00;99.90;;;;;;10480710;28;20039;-79
2022/11/19 20:54:40;;;;;;;145.87;63.93;;;-5.00;99.90;;;;;;10464513;28;20024;-79
2022/11/19 20:59:41;;;;;;;157.80;61.77;;;-4.90;99.90;;;;;;10480996;28;20797;-82
2022/11/19 21:04:41;;;;;;;156.47;65.27;;;-5.00;99.90;;;;;;10454482;28;20124;-80
2022/11/19 21:09:42;;;;;;;186.63;75.67;;;-5.00;99.90;;;;;;10477175;28;20040;-79
2022/11/19 21:14:43;;;;;;;150.53;63.47;;;-5.10;99.90;;;;;;10487175;28;20491;-79
2022/11/19 21:19:44;;;;;;;151.73;64.00;;;-5.10;99.90;;;;;;10460921;28;20039;-79
2022/11/19 21:24:45;;;;;;;157.70;64.00;;;-5.10;99.90;;;;;;10448831;28;20491;-79
2022/11/19 21:29:45;;;;;;;156.27;68.83;;;-5.10;99.90;;;;;;10476606;28;20071;-79
2022/11/19 21:34:46;;;;;;;177.07;71.47;;;-5.10;99.90;;;;;;10483443;28;20032;-79
2022/11/19 21:39:46;;;;;;;162.13;72.83;;;-5.10;99.90;;;;;;10461864;28;20033;-79
2022/11/19 21:44:47;;;;;;;160.67;67.97;;;-5.20;99.90;;;;;;10474987;28;20052;-79
2022/11/19 21:49:47;;;;;;;166.57;67.87;;;-5.20;99.90;;;;;;10466112;28;20106;-79
2022/11/19 21:54:48;;;;;;;162.00;63.77;;;-5.20;99.90;;;;;;10472432;28;20025;-80
2022/11/19 21:59:48;;;;;;;142.03;60.43;;;-5.30;99.90;;;;;;10465278;28;20029;-79
2022/11/19 22:04:49;;;;;;;138.50;56.23;;;-5.30;99.90;;;;;;10479769;28;20464;-79
2022/11/19 22:09:49;;;;;;;150.40;60.50;;;-5.30;99.90;;;;;;10471017;28;20043;-79
2022/11/19 22:14:50;;;;;;;147.63;60.53;;;-5.20;99.90;;;;;;10467373;28;20460;-81
2022/11/19 22:19:50;;;;;;;150.33;62.47;;;-5.20;99.90;;;;;;10452670;28;20043;-81
2022/11/19 22:24:51;;;;;;;137.90;56.30;;;-5.20;99.90;;;;;;10459425;28;20036;-80
2022/11/19 22:29:51;;;;;;;130.90;54.07;;;-5.30;99.90;;;;;;10468428;28;20041;-79
2022/11/19 22:34:52;;;;;;;140.23;57.53;;;-5.20;99.90;;;;;;10477795;28;20595;-79
2022/11/19 22:39:52;;;;;;;143.03;62.90;;;-5.20;99.90;;;;;;10463745;28;20029;-79
2022/11/19 22:44:53;;;;;;;162.90;69.67;;;-5.30;99.90;;;;;;10479266;28;20128;-79
2022/11/19 22:49:53;;;;;;;167.23;71.87;;;-5.30;99.90;;;;;;10459265;28;20396;-79
2022/11/19 22:54:54;;;;;;;177.63;74.03;;;-5.30;99.90;;;;;;10465257;28;20028;-80
2022/11/19 22:59:54;;;;;;;181.90;81.00;;;-5.40;99.90;;;;;;10475368;28;20032;-80
2022/11/19 23:04:55;;;;;;;157.37;68.47;;;-5.40;99.90;;;;;;10450455;28;20033;-79
2022/11/19 23:09:55;;;;;;;165.77;68.30;;;-5.40;99.90;;;;;;10468829;28;20047;-79
2022/11/19 23:14:56;;;;;;;137.27;64.90;;;-5.40;99.90;;;;;;10454222;28;20362;-81
2022/11/19 23:19:56;;;;;;;150.20;70.00;;;-5.40;99.90;;;;;;10456248;28;20484;-79
2022/11/19 23:24:57;;;;;;;158.07;61.63;;;-5.40;99.90;;;;;;10470671;28;20039;-80
2022/11/19 23:29:57;;;;;;;138.93;59.27;;;-5.50;99.90;;;;;;10472168;28;20495;-79
2022/11/19 23:34:58;;;;;;;150.23;60.43;;;-5.60;99.90;;;;;;10473510;28;20091;-79
2022/11/19 23:39:58;;;;;;;140.13;58.10;;;-5.60;99.90;;;;;;10457354;28;20036;-80
2022/11/19 23:44:59;;;;;;;129.33;55.93;;;-5.60;99.90;;;;;;10474562;28;20053;-79
2022/11/19 23:50:00;;;;;;;117.93;53.37;;;-5.60;99.90;;;;;;10475184;28;20051;-80
2022/11/19 23:55:00;;;;;;;124.30;52.93;;;-5.60;99.90;;;;;;10464249;28;20222;-78
